Time;durP1;ratioP1;P1;durP2;ratioP2;P2;SDS_P1;SDS_P2;PMS_P1;PMS_P2;Temp;Humidity;BMP_temperature;BMP_pressure;BME280_temperature;BME280_humidity;BME280_pressure;Samples;Min_cycle;Max_cycle;Signal;HPM_P1;HPM_P2
2022/05/09 00:02:17;;;;;;;4.70;1.65;;;;;;;9.91;100.00;97468.88;5067308;28;20040;-71
2022/05/09 00:04:42;;;;;;;5.00;1.58;;;;;;;9.81;100.00;97470.44;5067031;28;20060;-72
2022/05/09 00:07:08;;;;;;;6.57;1.77;;;;;;;9.75;100.00;97472.94;5068810;28;20036;-72
2022/05/09 00:09:34;;;;;;;6.10;1.77;;;;;;;9.69;100.00;97465.78;5069872;28;20042;-70
2022/05/09 00:12:00;;;;;;;5.97;1.80;;;;;;;9.62;100.00;97466.84;5068835;28;20039;-72
2022/05/09 00:14:26;;;;;;;5.85;1.38;;;;;;;9.62;100.00;97462.34;5067693;28;20540;-73
2022/05/09 00:16:52;;;;;;;4.07;1.63;;;;;;;9.61;100.00;97463.38;5065953;28;20578;-71
2022/05/09 00:19:20;;;;;;;6.13;1.90;;;;;;;9.61;100.00;97471.38;5069003;28;20032;-72
2022/05/09 00:21:47;;;;;;;8.13;1.60;;;;;;;9.64;100.00;97465.59;5068218;28;20039;-72
2022/05/09 00:24:14;;;;;;;4.75;1.58;;;;;;;9.64;100.00;97465.59;5066040;28;20490;-71
2022/05/09 00:26:46;;;;;;;5.03;1.50;;;;;;;9.65;100.00;97463.75;5068534;28;20560;-71
2022/05/09 00:29:13;;;;;;;10.70;2.33;;;;;;;9.65;100.00;97463.75;5069311;28;20040;-74
2022/05/09 00:31:40;;;;;;;8.77;1.70;;;;;;;9.65;100.00;97469.09;5067148;28;20440;-71
2022/05/09 00:34:07;;;;;;;7.38;2.10;;;;;;;9.63;100.00;97460.47;5066105;28;20715;-71
2022/05/09 00:36:32;;;;;;;9.65;1.50;;;;;;;9.59;100.00;97460.09;5065950;28;20104;-71
2022/05/09 00:38:59;;;;;;;10.55;1.95;;;;;;;9.56;100.00;97465.06;5067985;28;20537;-73
2022/05/09 00:41:34;;;;;;;6.65;1.80;;;;;;;9.58;100.00;97463.81;5067630;28;20036;-71
2022/05/09 00:44:11;;;;;;;3.38;1.40;;;;;;;9.54;100.00;97459.13;5068896;28;20040;-71
2022/05/09 00:46:38;;;;;;;5.28;1.77;;;;;;;9.50;100.00;97464.09;5069119;28;20564;-72
2022/05/09 00:49:29;;;;;;;9.45;1.58;;;;;;;9.51;100.00;97460.38;5067794;28;20157;-71
2022/05/09 00:52:00;;;;;;;;;;;;;;;9.47;100.00;97453.81;5064255;28;20057;-71
2022/05/09 00:54:29;;;;;;;5.88;1.95;;;;;;;9.45;100.00;97451.38;5066963;28;20364;-74
2022/05/09 00:57:07;;;;;;;5.50;1.95;;;;;;;9.43;100.00;97455.31;5070430;28;20402;-71
2022/05/09 00:59:35;;;;;;;7.80;2.08;;;;;;;9.42;100.00;97456.34;5068002;28;20539;-73
2022/05/09 01:02:01;;;;;;;5.65;1.70;;;;;;;9.34;100.00;97451.22;5067738;28;20828;-71
2022/05/09 01:04:33;;;;;;;5.03;1.52;;;;;;;9.34;100.00;97457.41;5066467;28;20060;-71
2022/05/09 01:06:58;;;;;;;5.90;1.60;;;;;;;9.28;100.00;97450.25;5066046;28;20056;-73
2022/05/09 01:09:26;;;;;;;5.78;1.70;;;;;;;9.34;100.00;97456.56;5065865;28;20036;-71
2022/05/09 01:11:53;;;;;;;8.60;1.80;;;;;;;9.36;100.00;97450.00;5065442;28;20040;-72
2022/05/09 01:14:32;;;;;;;9.02;2.30;;;;;;;9.35;100.00;97451.03;5067219;28;20122;-72
2022/05/09 01:17:00;;;;;;;10.82;1.80;;;;;;;9.37;100.00;97450.81;5066943;28;20052;-73
2022/05/09 01:19:36;;;;;;;7.90;1.80;;;;;;;9.37;100.00;97445.47;5074789;28;20551;-71
2022/05/09 01:22:05;;;;;;;8.38;2.17;;;;;;;9.38;100.00;97452.44;5057572;28;20043;-71
2022/05/09 01:24:31;;;;;;;7.15;1.80;;;;;;;9.38;100.00;97444.44;5066925;28;20047;-71
2022/05/09 01:26:57;;;;;;;7.57;1.90;;;;;;;9.38;100.00;97452.44;5068961;28;20037;-71
2022/05/09 01:29:36;;;;;;;8.27;1.95;;;;;;;9.39;100.00;97448.75;5063849;28;20172;-72
2022/05/09 01:32:03;;;;;;;6.63;1.80;;;;;;;9.37;100.00;97450.81;5067621;28;20083;-71
2022/05/09 01:34:30;;;;;;;5.72;2.20;;;;;;;9.33;100.00;97438.91;5071995;28;20036;-71
2022/05/09 01:37:00;;;;;;;5.15;2.03;;;;;;;9.35;100.00;97443.03;5068109;28;20049;-71
2022/05/09 01:39:26;;;;;;;5.45;2.00;;;;;;;9.36;100.00;97444.66;5065920;28;20040;-71
2022/05/09 01:41:52;;;;;;;8.15;1.90;;;;;;;9.26;100.00;97440.81;5067000;28;20376;-70
2022/05/09 01:44:19;;;;;;;5.63;2.47;;;;;;;9.27;100.00;97439.81;5065538;28;20059;-73
2022/05/09 01:49:34;;;;;;;6.07;1.88;;;;;;;9.14;100.00;97436.19;5067586;28;20041;-71
2022/05/09 01:52:05;;;;;;;4.00;1.70;;;;;;;9.16;100.00;97435.94;5068359;28;20078;-72
2022/05/09 01:54:31;;;;;;;9.85;2.28;;;;;;;9.14;100.00;97435.34;5063745;28;20041;-71
2022/05/09 01:56:57;;;;;;;7.00;2.30;;;;;;;9.10;100.00;97434.94;5065702;28;20110;-71
2022/05/09 01:59:22;;;;;;;4.55;1.83;;;;;;;9.09;100.00;97437.84;5065407;28;20139;-71
2022/05/09 02:01:56;;;;;;;6.97;1.95;;;;;;;9.09;100.00;97438.66;5067598;28;20044;-73
2022/05/09 02:04:23;;;;;;;10.05;2.08;;;;;;;9.04;100.00;97445.69;5066034;28;20115;-73
2022/05/09 02:06:49;;;;;;;6.32;2.22;;;;;;;8.99;100.00;97440.19;5066342;28;20043;-73
2022/05/09 02:09:15;;;;;;;3.78;1.90;;;;;;;9.00;100.00;97434.63;5063780;28;20509;-71
2022/05/09 02:11:41;;;;;;;6.43;2.22;;;;;;;8.99;100.00;97442.84;5065886;28;21153;-72
2022/05/09 02:14:06;;;;;;;9.35;2.13;;;;;;;9.02;100.00;97445.88;5064583;28;20063;-71
2022/05/09 02:16:32;;;;;;;4.90;1.85;;;;;;;8.98;100.00;97450.03;5066360;28;20082;-73
2022/05/09 02:18:58;;;;;;;7.35;2.25;;;;;;;8.97;100.00;97440.41;5066321;28;20115;-73
2022/05/09 02:21:23;;;;;;;7.57;2.10;;;;;;;8.96;100.00;97437.94;5065635;28;20033;-71
2022/05/09 02:23:49;;;;;;;6.32;2.00;;;;;;;8.99;100.00;97441.00;5066053;28;20431;-71
2022/05/09 02:26:15;;;;;;;6.13;2.05;;;;;;;8.97;100.00;97437.72;5063910;28;20082;-71
2022/05/09 02:28:41;;;;;;;13.38;2.65;;;;;;;8.94;100.00;97432.78;5072678;28;20131;-72
2022/05/09 02:31:07;;;;;;;9.63;2.50;;;;;;;8.92;100.00;97445.53;5065862;28;20044;-70
2022/05/09 02:33:32;;;;;;;9.68;2.80;;;;;;;8.87;100.00;97442.69;5065496;28;20044;-71
2022/05/09 02:35:58;;;;;;;6.57;2.47;;;;;;;8.87;100.00;97440.03;5064941;28;20040;-73
2022/05/09 02:38:24;;;;;;;7.28;2.30;;;;;;;8.90;100.00;97444.94;5063928;28;20060;-71
2022/05/09 02:40:53;;;;;;;7.53;2.22;;;;;;;8.88;100.00;97434.50;5066199;28;20399;-72
2022/05/09 02:43:18;;;;;;;6.13;2.20;;;;;;;8.89;100.00;97438.78;5065731;28;20051;-72
2022/05/09 02:45:44;;;;;;;4.07;2.13;;;;;;;8.90;100.00;97437.75;5067197;28;20036;-71
2022/05/09 02:48:10;;;;;;;7.38;2.65;;;;;;;8.95;100.00;97434.47;5065702;28;20044;-71
2022/05/09 02:50:37;;;;;;;7.18;2.65;;;;;;;8.91;100.00;97436.72;5068971;28;20532;-70
2022/05/09 02:53:03;;;;;;;5.72;2.40;;;;;;;8.89;100.00;97432.63;5063082;28;20058;-73
2022/05/09 02:55:31;;;;;;;7.53;2.55;;;;;;;8.85;100.00;97431.41;5066379;28;20047;-71
2022/05/09 02:57:57;;;;;;;11.13;2.70;;;;;;;8.89;100.00;97435.31;5066570;28;20037;-71
2022/05/09 03:00:26;;;;;;;6.90;2.75;;;;;;;8.87;100.00;97440.88;5066227;28;20040;-71
2022/05/09 03:05:39;;;;;;;8.10;2.70;;;;;;;8.88;100.00;97441.69;5066085;28;20126;-72
2022/05/09 03:08:05;;;;;;;5.78;2.33;;;;;;;8.85;100.00;97434.91;5064867;28;20032;-71
2022/05/09 03:10:31;;;;;;;7.88;2.65;;;;;;;8.87;100.00;97440.03;5065797;28;20056;-73
2022/05/09 03:13:01;;;;;;;10.05;2.40;;;;;;;8.84;100.00;97427.13;5066013;28;20046;-70
2022/05/09 03:15:28;;;;;;;10.07;3.17;;;;;;;8.84;100.00;97433.28;5065348;28;20482;-71
2022/05/09 03:17:54;;;;;;;12.00;3.60;;;;;;;8.82;100.00;97432.66;5065528;28;20071;-71
2022/05/09 03:20:21;;;;;;;6.95;2.47;;;;;;;8.82;100.00;97435.34;5064106;28;20040;-71
2022/05/09 03:22:48;;;;;;;6.25;2.53;;;;;;;8.82;100.00;97426.50;5066350;28;20052;-73
2022/05/09 03:25:13;;;;;;;9.63;2.60;;;;;;;8.84;100.00;97440.47;5065201;28;20040;-72
2022/05/09 03:27:39;;;;;;;6.35;2.60;;;;;;;8.82;100.00;97430.00;5068623;28;20164;-70
2022/05/09 03:30:06;;;;;;;8.93;2.88;;;;;;;8.79;100.00;97433.06;5063048;28;20316;-71
2022/05/09 03:32:32;;;;;;;10.32;3.15;;;;;;;8.79;100.00;97426.91;5065505;28;20678;-73
2022/05/09 03:34:57;;;;;;;8.65;2.63;;;;;;;8.77;100.00;97424.47;5065922;28;20147;-72
2022/05/09 03:37:23;;;;;;;8.63;3.33;;;;;;;8.75;100.00;97431.06;5065823;28;20068;-72
2022/05/09 03:39:48;;;;;;;7.55;3.03;;;;;;;8.73;100.00;97436.63;5069471;28;20483;-73
2022/05/09 03:42:16;;;;;;;6.30;2.72;;;;;;;8.64;100.00;97435.22;5067915;28;20040;-71
2022/05/09 03:44:41;;;;;;;8.90;3.03;;;;;;;8.61;100.00;97435.63;5059580;28;20115;-72
2022/05/09 03:47:08;;;;;;;8.00;2.70;;;;;;;8.57;100.00;97431.78;5069134;28;20093;-73
2022/05/09 03:49:33;;;;;;;10.75;2.92;;;;;;;8.63;100.00;97430.91;5069686;28;20039;-71
2022/05/09 03:51:59;;;;;;;5.00;2.40;;;;;;;8.62;100.00;97430.09;5070291;28;20042;-71
2022/05/09 03:54:25;;;;;;;11.18;2.83;;;;;;;8.62;100.00;97445.28;5068973;28;20052;-71
2022/05/09 03:56:51;;;;;;;7.75;2.53;;;;;;;8.61;100.00;97438.31;5069191;28;20044;-72
2022/05/09 03:59:17;;;;;;;8.32;2.92;;;;;;;8.58;100.00;97439.56;5068078;28;20098;-71
2022/05/09 04:01:42;;;;;;;6.70;2.60;;;;;;;8.67;100.00;97436.66;5067937;28;20131;-73
2022/05/09 04:04:08;;;;;;;6.28;2.88;;;;;;;8.72;100.00;97442.19;5067422;28;20083;-72
2022/05/09 04:06:34;;;;;;;7.07;3.35;;;;;;;8.78;100.00;97433.28;5069457;28;20536;-70
2022/05/09 04:09:04;;;;;;;7.35;2.88;;;;;;;8.79;100.00;97427.75;5067883;28;20120;-70
2022/05/09 04:11:29;;;;;;;15.15;3.83;;;;;;;8.79;100.00;97433.06;5067452;28;20041;-71
2022/05/09 04:13:54;;;;;;;8.90;3.00;;;;;;;8.82;100.00;97434.53;5068674;28;20073;-70
2022/05/09 04:19:04;;;;;;;10.63;3.65;;;;;;;8.83;100.00;97436.97;5067783;28;20089;-70
2022/05/09 04:21:30;;;;;;;9.00;3.40;;;;;;;8.79;100.00;97433.06;5067158;28;20411;-71
2022/05/09 04:23:58;;;;;;;7.47;2.88;;;;;;;8.77;100.00;97442.34;5068138;28;20542;-70
2022/05/09 04:26:29;;;;;;;6.82;3.00;;;;;;;8.78;100.00;97431.44;5067836;28;20070;-71
2022/05/09 04:28:55;;;;;;;;;;;;;;;8.81;100.00;97441.72;5069855;28;20464;-75
2022/05/09 04:31:20;;;;;;;10.80;3.22;;;;;;;8.85;100.00;97442.09;5067514;28;19920;-73
2022/05/09 04:33:46;;;;;;;7.10;3.10;;;;;;;8.87;100.00;97448.03;5066674;28;20387;-72
2022/05/09 04:36:12;;;;;;;12.38;3.35;;;;;;;8.89;100.00;97440.66;5066651;28;20047;-75
2022/05/09 04:38:41;;;;;;;8.40;3.20;;;;;;;8.93;100.00;97444.50;5065870;28;20302;-73
2022/05/09 04:41:08;;;;;;;8.45;3.60;;;;;;;8.95;100.00;97447.81;5067779;28;20594;-72
2022/05/09 04:43:36;;;;;;;10.98;3.40;;;;;;;8.96;100.00;97449.44;5068218;28;20036;-73
2022/05/09 04:46:01;;;;;;;8.23;3.15;;;;;;;8.96;100.00;97451.28;5069488;28;20041;-72
2022/05/09 04:48:28;;;;;;;8.77;3.10;;;;;;;8.99;100.00;97453.53;5069119;28;20038;-74
2022/05/09 04:50:54;;;;;;;7.00;3.55;;;;;;;8.99;100.00;97459.69;5065981;28;20054;-73
2022/05/09 04:53:20;;;;;;;6.70;3.40;;;;;;;9.00;100.00;97450.63;5066828;28;20078;-73
2022/05/09 04:55:46;;;;;;;11.52;3.90;;;;;;;9.06;100.00;97455.13;5067288;28;20136;-72
2022/05/09 04:58:14;;;;;;;7.85;3.47;;;;;;;9.08;100.00;97453.03;5066192;28;20125;-73
2022/05/09 05:00:40;;;;;;;8.35;3.10;;;;;;;9.14;100.00;97446.84;5067115;28;20044;-73
2022/05/09 05:03:06;;;;;;;7.90;3.28;;;;;;;9.24;100.00;97450.91;5064807;28;20403;-72
2022/05/09 05:05:31;;;;;;;9.00;3.17;;;;;;;9.29;100.00;97448.41;5068874;28;20042;-73
2022/05/09 05:07:57;;;;;;;7.45;3.20;;;;;;;9.34;100.00;97445.88;5067112;28;20228;-74
2022/05/09 05:10:23;;;;;;;12.40;3.38;;;;;;;9.42;100.00;97453.66;5068274;28;20033;-73
2022/05/09 05:12:48;;;;;;;7.57;3.25;;;;;;;9.47;100.00;97453.81;5066952;28;20032;-72
2022/05/09 05:15:14;;;;;;;9.05;3.60;;;;;;;9.58;100.00;97455.00;5065338;28;20045;-73
2022/05/09 05:17:40;;;;;;;8.88;3.20;;;;;;;9.64;100.00;97454.09;5067959;28;20410;-73
2022/05/09 05:20:09;;;;;;;10.75;3.30;;;;;;;9.76;100.00;97455.84;5066195;28;20047;-75
2022/05/09 05:22:37;;;;;;;9.55;3.00;;;;;;;9.86;100.00;97455.34;5066046;28;20115;-72
2022/05/09 05:25:04;;;;;;;8.93;3.15;;;;;;;9.94;100.00;97451.56;5065904;28;20165;-73
2022/05/09 05:27:29;;;;;;;7.80;3.30;;;;;;;10.06;100.00;97460.53;5071006;28;20329;-73
2022/05/09 05:29:57;;;;;;;8.20;3.88;;;;;;;10.14;100.00;97462.09;5064836;28;20037;-72
2022/05/09 05:32:24;;;;;;;9.77;3.90;;;;;;;10.22;100.00;97462.66;5066219;28;20048;-74
2022/05/09 05:34:50;;;;;;;10.60;3.42;;;;;;;10.32;100.00;97462.13;5067279;28;20047;-73
2022/05/09 05:37:16;;;;;;;6.22;3.17;;;;;;;10.40;100.00;97458.34;5066734;28;20040;-74
2022/05/09 05:39:46;;;;;;;5.78;3.22;;;;;;;10.48;100.00;97468.75;5074332;28;20873;-75
2022/05/09 05:42:15;;;;;;;8.38;3.58;;;;;;;10.59;100.00;97460.00;5068477;28;20039;-73
2022/05/09 05:44:40;;;;;;;10.30;3.30;;;;;;;10.68;100.00;97453.28;5068850;28;20032;-74
2022/05/09 05:47:11;;;;;;;7.82;3.30;;;;;;;10.78;100.00;97460.78;5068169;28;20040;-73
2022/05/09 05:49:38;;;;;;;15.60;3.50;;;;;;;10.82;100.00;97451.25;5068491;28;20032;-74
2022/05/09 05:52:04;;;;;;;8.85;2.72;;;;;;;10.98;100.00;97463.22;5066233;28;20837;-75
2022/05/09 05:54:32;;;;;;;10.02;3.60;;;;;;;11.06;100.00;97458.34;5067095;28;20616;-75
2022/05/09 05:56:58;;;;;;;7.30;3.30;;;;;;;11.15;100.00;97466.88;5067850;28;20124;-73
2022/05/09 05:59:25;;;;;;;8.27;3.38;;;;;;;11.26;100.00;97462.59;5066362;28;20037;-73
2022/05/09 06:01:54;;;;;;;8.68;3.38;;;;;;;11.37;100.00;97461.84;5066079;28;20122;-74
2022/05/09 06:04:21;;;;;;;9.82;3.75;;;;;;;11.44;100.00;97463.38;5067323;28;20032;-73
2022/05/09 06:06:48;;;;;;;6.55;3.08;;;;;;;11.57;100.00;97466.88;5064787;28;20113;-73
2022/05/09 06:09:14;;;;;;;10.68;3.80;;;;;;;11.65;100.00;97458.50;5064920;28;20045;-73
2022/05/09 06:11:40;;;;;;;10.68;3.47;;;;;;;11.72;100.00;97470.75;5066040;28;20039;-73
2022/05/09 06:14:10;;;;;;;7.70;3.30;;;;;;;11.80;100.00;97469.63;5065246;28;20044;-73
2022/05/09 06:16:36;;;;;;;9.88;3.78;;;;;;;11.88;100.00;97473.84;5065710;28;20040;-73
2022/05/09 06:19:05;;;;;;;7.15;3.65;;;;;;;11.95;100.00;97466.50;5068368;28;20051;-76
2022/05/09 06:21:34;;;;;;;11.02;4.15;;;;;;;12.02;100.00;97475.25;5065776;28;20082;-75
2022/05/09 06:24:02;;;;;;;8.30;3.45;;;;;;;12.11;100.00;97473.84;5066062;28;20098;-73
2022/05/09 06:26:28;;;;;;;8.15;3.50;;;;;;;12.24;100.00;97478.16;5069829;28;20108;-74
2022/05/09 06:28:54;;;;;;;10.15;3.58;;;;;;;12.37;100.00;97475.22;5083582;28;20037;-73
2022/05/09 06:31:19;;;;;;;11.73;3.80;;;;;;;12.45;100.00;97479.41;5067065;28;20377;-73
2022/05/09 06:33:45;;;;;;;8.80;3.97;;;;;;;12.52;100.00;97480.91;5065828;28;20052;-76
2022/05/09 06:36:10;;;;;;;6.72;3.75;;;;;;;12.60;100.00;97486.97;5065950;28;20513;-75
2022/05/09 06:38:36;;;;;;;12.77;4.10;;;;;;;12.64;100.00;97478.22;5068319;28;20489;-74
2022/05/09 06:41:01;;;;;;;8.80;3.95;;;;;;;12.71;100.00;97483.47;5067777;28;20075;-73
2022/05/09 06:43:28;;;;;;;8.52;3.90;;;;;;;12.76;100.00;97481.72;5067838;28;20087;-74
2022/05/09 06:45:54;;;;;;;9.07;3.80;;;;;;;12.85;100.00;97478.66;5066849;28;20468;-76
2022/05/09 06:48:20;;;;;;;12.07;3.72;;;;;;;12.92;100.00;97488.22;5067405;28;20035;-73
2022/05/09 06:50:45;;;;;;;9.45;3.70;;;;;;;12.99;100.00;97475.44;5064590;28;20091;-74
2022/05/09 06:53:12;;;;;;;10.60;3.95;;;;;;;13.04;100.00;97477.41;5066310;28;20087;-73
2022/05/09 06:55:38;;;;;;;11.43;4.03;;;;;;;13.08;100.00;97478.59;5066728;28;20036;-73
2022/05/09 06:58:09;;;;;;;7.03;3.70;;;;;;;13.18;100.00;97473.38;5066332;28;20399;-73
2022/05/09 07:00:35;;;;;;;10.32;3.42;;;;;;;13.27;100.00;97479.22;5067620;28;20136;-76
2022/05/09 07:03:01;;;;;;;6.10;3.20;;;;;;;13.22;100.00;97468.38;5063738;28;20045;-73
2022/05/09 07:05:27;;;;;;;8.02;3.45;;;;;;;13.36;100.00;97470.53;5066103;28;20589;-73
2022/05/09 07:07:53;;;;;;;8.93;3.67;;;;;;;13.46;100.00;97472.56;5068578;28;20523;-73
2022/05/09 07:10:19;;;;;;;11.00;3.70;;;;;;;13.54;100.00;97482.97;5067318;28;20051;-73
2022/05/09 07:12:49;;;;;;;6.05;3.50;;;;;;;13.65;100.00;97484.75;5067233;28;20460;-73
2022/05/09 07:15:18;;;;;;;6.43;3.45;;;;;;;13.66;100.00;97482.88;5069654;28;20599;-72
2022/05/09 07:17:45;;;;;;;11.13;3.90;;;;;;;13.78;100.00;97485.50;5072437;28;20034;-73
2022/05/09 07:20:12;;;;;;;11.18;3.55;;;;;;;13.85;100.00;97480.75;5072021;28;20185;-73
2022/05/09 07:22:38;;;;;;;11.63;4.30;;;;;;;13.87;100.00;97481.34;5069464;28;20036;-73
2022/05/09 07:25:04;;;;;;;8.57;3.90;;;;;;;13.86;100.00;97485.91;5068671;28;20037;-73
2022/05/09 07:27:30;;;;;;;7.65;3.80;;;;;;;13.88;100.00;97489.16;5070775;28;20343;-73
2022/05/09 07:29:56;;;;;;;10.38;3.63;;;;;;;13.97;100.00;97486.88;5067759;28;20526;-76
2022/05/09 07:32:22;;;;;;;12.23;4.25;;;;;;;14.02;100.00;97483.47;5070473;28;20152;-72
2022/05/09 07:34:49;;;;;;;13.63;4.10;;;;;;;14.03;100.00;97485.91;5068197;28;20040;-73
2022/05/09 07:37:18;;;;;;;9.05;4.07;;;;;;;14.11;100.00;97485.50;5067157;28;20036;-74
2022/05/09 07:39:43;;;;;;;10.15;4.03;;;;;;;14.15;100.00;97483.94;5070308;28;20542;-74
2022/05/09 07:42:11;;;;;;;10.07;4.00;;;;;;;14.23;100.00;97491.59;5070029;28;20132;-73
2022/05/09 07:44:37;;;;;;;13.02;3.80;;;;;;;14.37;100.00;97486.69;5071809;28;20402;-75
2022/05/09 07:47:02;;;;;;;11.48;4.18;;;;;;;14.51;100.00;97487.19;5069170;28;20040;-76
2022/05/09 07:49:28;;;;;;;14.60;3.72;;;;;;;14.47;100.00;97491.41;5070573;28;20379;-73
2022/05/09 07:51:54;;;;;;;14.48;4.18;;;;;;;14.64;100.00;97491.41;5068246;28;20040;-75
2022/05/09 07:54:19;;;;;;;8.60;3.53;;;;;;;14.64;100.00;97488.72;5068621;28;20446;-73
2022/05/09 07:56:44;;;;;;;11.98;4.40;;;;;;;14.74;100.00;97489.66;5070153;28;20051;-74
2022/05/09 07:59:11;;;;;;;10.65;4.50;;;;;;;14.88;100.00;97494.66;5069760;28;20043;-74
2022/05/09 08:01:36;;;;;;;8.77;4.30;;;;;;;14.94;100.00;97494.50;5068160;28;20810;-73
2022/05/09 08:04:02;;;;;;;10.95;4.97;;;;;;;14.98;100.00;97494.78;5072556;28;20036;-73
2022/05/09 08:06:28;;;;;;;10.40;4.22;;;;;;;15.05;100.00;97488.13;5070261;28;20033;-73
2022/05/09 08:08:53;;;;;;;9.82;4.28;;;;;;;15.10;100.00;97484.69;5067548;28;20071;-77
2022/05/09 08:11:22;;;;;;;7.55;3.92;;;;;;;15.11;100.00;97483.63;5070123;28;20482;-75
2022/05/09 08:13:47;;;;;;;9.73;4.10;;;;;;;15.27;100.00;97488.13;5068394;28;20035;-73
2022/05/09 08:16:15;;;;;;;10.25;4.35;;;;;;;15.46;100.00;97485.06;5066592;28;20044;-75
2022/05/09 08:18:40;;;;;;;12.23;4.57;;;;;;;15.48;100.00;97491.00;5063120;28;20037;-75
2022/05/09 08:21:06;;;;;;;8.45;5.15;;;;;;;15.50;100.00;97481.63;5036210;28;20079;-74
2022/05/09 08:23:32;;;;;;;14.77;5.55;;;;;;;15.52;100.00;97484.06;5067073;28;20051;-74
2022/05/09 08:26:02;;;;;;;10.73;5.38;;;;;;;15.58;100.00;97475.75;5069410;28;20072;-74
2022/05/09 08:28:29;;;;;;;11.30;5.65;;;;;;;15.73;100.00;97480.50;5138912;22;20041;-78
2022/05/09 08:30:55;;;;;;;12.35;5.47;;;;;;;15.75;100.00;97486.47;5017028;28;20040;-76
2022/05/09 08:33:23;;;;;;;8.95;4.65;;;;;;;15.67;100.00;97481.53;5012437;28;20041;-76
2022/05/09 08:35:52;;;;;;;13.50;5.35;;;;;;;15.87;100.00;97487.13;5014166;28;20131;-75
2022/05/09 08:38:19;;;;;;;16.42;4.88;;;;;;;15.88;100.00;97488.75;5030298;22;20016;-87
2022/05/09 08:41:12;;;;;;;11.18;4.90;;;;;;;16.07;100.00;97491.84;5035008;28;20522;-85
2022/05/09 08:47:49;;;;;;;12.45;4.35;;;;;;;16.08;100.00;97496.16;5001933;28;20034;-93
2022/05/09 08:50:47;;;;;;;8.80;5.40;;;;;;;16.17;100.00;97494.59;4945598;28;20034;-92
2022/05/09 08:53:49;;;;;;;9.45;4.95;;;;;;;16.10;100.00;97494.03;4986769;28;20088;-92
2022/05/09 08:56:24;;;;;;;9.52;4.50;;;;;;;16.13;100.00;97498.09;4985386;28;20060;-92
2022/05/09 08:59:05;;;;;;;13.18;4.60;;;;;;;16.33;100.00;97494.72;5092892;23;20057;-73
2022/05/09 09:01:42;;;;;;;14.70;5.03;;;;;;;16.36;100.00;97491.53;5010236;28;20038;-72
2022/05/09 09:04:24;;;;;;;9.27;4.68;;;;;;;16.52;100.00;97489.72;5009833;28;20120;-73
2022/05/09 09:07:08;;;;;;;11.73;5.07;;;;;;;16.56;100.00;97498.91;5010969;28;20150;-72
2022/05/09 09:10:06;;;;;;;7.07;4.63;;;;;;;16.58;100.00;97494.91;5011481;28;20041;-72
2022/05/09 09:12:53;;;;;;;12.20;5.13;;;;;;;16.76;100.00;97493.66;5011275;28;20350;-72
2022/05/09 09:15:44;;;;;;;9.77;5.10;;;;;;;16.78;100.00;97488.81;5010794;28;20430;-74
2022/05/09 09:18:32;;;;;;;9.63;4.93;;;;;;;16.89;100.00;97487.78;5009342;28;20064;-74
2022/05/09 09:21:01;;;;;;;13.50;6.00;;;;;;;16.99;100.00;97485.13;4985137;28;20108;-72
2022/05/09 09:23:55;;;;;;;9.23;5.20;;;;;;;17.13;100.00;97484.63;5009088;28;20084;-73
2022/05/09 09:26:50;;;;;;;12.23;5.40;;;;;;;17.10;100.00;97488.66;5010000;28;20041;-73
2022/05/09 09:29:21;;;;;;;11.40;5.53;;;;;;;17.25;100.00;97482.50;4993135;28;20097;-72
2022/05/09 09:31:51;;;;;;;10.93;5.90;;;;;;;17.44;100.00;97486.34;4998686;28;20121;-74
2022/05/09 09:34:42;;;;;;;15.70;5.55;;;;;;;17.62;100.00;97486.91;4990641;28;20480;-72
2022/05/09 09:37:31;;;;;;;10.93;5.50;;;;;;;17.73;100.00;97480.44;4988100;28;20089;-73
2022/05/09 09:39:57;;;;;;;14.30;5.70;;;;;;;17.84;100.00;97478.56;4990430;28;20054;-73
2022/05/09 09:42:23;;;;;;;12.57;5.80;;;;;;;17.70;100.00;97472.84;4990356;28;20603;-74
2022/05/09 09:44:49;;;;;;;10.95;5.25;;;;;;;17.98;100.00;97468.84;4989982;28;20330;-73
2022/05/09 09:47:20;;;;;;;10.93;6.15;;;;;;;18.02;100.00;97473.41;4986910;28;20550;-73
2022/05/09 09:49:48;;;;;;;14.40;6.18;;;;;;;18.19;100.00;97469.63;4987754;28;20120;-73
2022/05/09 09:52:24;;;;;;;12.07;5.65;;;;;;;18.46;100.00;97462.00;4987779;28;20042;-74
2022/05/09 09:55:01;;;;;;;9.00;5.80;;;;;;;18.46;100.00;97469.31;4988797;28;20065;-73
2022/05/09 09:57:29;;;;;;;10.20;5.57;;;;;;;18.52;100.00;97465.47;4991651;28;20391;-74
2022/05/09 09:59:57;;;;;;;11.10;5.45;;;;;;;18.62;100.00;97465.47;4988943;28;20508;-73
2022/05/09 10:02:29;;;;;;;11.27;5.20;;;;;;;18.57;100.00;97468.19;5006883;28;20082;-73
2022/05/09 10:04:57;;;;;;;10.77;5.40;;;;;;;18.68;100.00;97459.00;5010779;28;20120;-73
2022/05/09 10:07:30;;;;;;;11.02;5.18;;;;;;;18.74;100.00;97454.34;5009096;28;20042;-73
2022/05/09 10:10:01;;;;;;;11.35;5.53;;;;;;;18.87;100.00;97461.88;5008741;28;20056;-74
2022/05/09 10:12:29;;;;;;;17.55;5.60;;;;;;;19.12;100.00;97467.19;5009962;28;20389;-73
2022/05/09 10:14:56;;;;;;;9.75;5.20;;;;;;;18.82;100.00;97456.47;5009947;28;20440;-73
2022/05/09 10:17:29;;;;;;;7.45;4.55;;;;;;;18.87;98.86;97461.88;5009517;28;20075;-73
2022/05/09 10:19:57;;;;;;;7.93;4.97;;;;;;;19.23;99.91;97461.75;5008615;28;20045;-73
2022/05/09 10:25:26;;;;;;;9.45;5.20;;;;;;;19.40;98.68;97449.41;5009034;28;20400;-73
2022/05/09 10:28:29;;;;;;;8.35;4.40;;;;;;;19.42;95.22;97449.13;5009423;28;20435;-74
2022/05/09 10:31:10;;;;;;;11.70;5.00;;;;;;;19.76;100.00;97450.00;4912637;29;20470;-73
2022/05/09 10:34:06;;;;;;;10.38;5.28;;;;;;;20.00;91.70;97444.66;4639511;28;10000660;-73
2022/05/09 10:36:41;;;;;;;9.25;5.28;;;;;;;19.78;91.67;97451.63;4642802;28;10001192;-74
2022/05/09 10:39:16;;;;;;;8.98;4.97;;;;;;;19.78;94.06;97436.16;4986019;28;20364;-74
2022/05/09 10:41:55;;;;;;;8.38;4.72;;;;;;;20.11;90.55;97441.84;4985691;28;20038;-73
2022/05/09 10:44:34;;;;;;;8.40;4.35;;;;;;;20.36;92.14;97440.78;4975828;28;20411;-74
2022/05/09 10:47:05;;;;;;;14.75;4.80;;;;;;;20.83;90.65;97435.38;4988056;28;20038;-73
2022/05/09 10:49:49;;;;;;;9.65;4.40;;;;;;;20.84;86.11;97431.56;4990375;28;20519;-73
2022/05/09 10:52:43;;;;;;;9.00;5.00;;;;;;;20.58;85.08;97432.97;4990808;28;20097;-73
2022/05/09 10:55:17;;;;;;;10.73;4.15;;;;;;;20.53;82.42;97425.66;4991609;28;20103;-73
2022/05/09 10:57:50;;;;;;;8.40;4.50;;;;;;;20.78;86.68;97432.75;4991957;28;20042;-74
2022/05/09 11:00:23;;;;;;;8.57;4.95;;;;;;;21.12;77.49;97421.69;4989160;28;20081;-73
2022/05/09 11:03:14;;;;;;;9.50;5.20;;;;;;;21.76;78.57;97419.41;4991566;28;20046;-74
2022/05/09 11:06:02;;;;;;;10.63;5.82;;;;;;;23.02;63.75;97417.38;4983232;28;20046;-73
2022/05/09 11:08:50;;;;;;;10.40;4.82;;;;;;;24.50;58.24;97417.38;4993148;28;20494;-73
2022/05/09 11:11:33;;;;;;;9.98;4.85;;;;;;;25.40;50.58;97417.00;4988390;28;20187;-73
2022/05/09 11:14:19;;;;;;;12.20;4.50;;;;;;;26.11;44.88;97412.78;4992558;28;20411;-75
2022/05/09 11:16:47;;;;;;;6.68;3.33;;;;;;;27.06;44.32;97405.34;4989511;28;20303;-74
2022/05/09 11:19:47;;;;;;;11.40;4.78;;;;;;;26.66;41.81;97392.78;4990813;28;20121;-73
2022/05/09 11:22:23;;;;;;;8.55;4.57;;;;;;;27.67;40.58;97392.00;4989952;28;20393;-73
2022/05/09 11:25:21;;;;;;;7.03;4.20;;;;;;;29.12;35.29;97395.38;4990902;28;20206;-73
2022/05/09 11:28:24;;;;;;;8.18;4.15;;;;;;;29.67;36.20;97391.94;4992280;28;20046;-73
2022/05/09 11:31:10;;;;;;;10.13;4.72;;;;;;;29.48;32.35;97388.19;5002899;28;20085;-73
2022/05/09 11:34:15;;;;;;;11.13;4.13;;;;;;;30.12;32.36;97382.56;4991515;28;20157;-74
2022/05/09 11:36:59;;;;;;;7.43;3.65;;;;;;;31.34;28.22;97376.09;4969862;28;20053;-74
2022/05/09 11:39:32;;;;;;;10.60;3.33;;;;;;;30.72;28.21;97379.75;4992808;28;20184;-73
2022/05/09 11:45:19;;;;;;;10.27;3.75;;;;;;;30.58;28.41;97380.19;4991076;28;20042;-73
2022/05/09 11:47:58;;;;;;;6.03;3.75;;;;;;;31.38;29.97;97378.16;4991689;28;20726;-73
2022/05/09 11:50:28;;;;;;;7.45;3.92;;;;;;;31.42;27.79;97379.00;4990841;28;20255;-74
2022/05/09 11:52:58;;;;;;;6.32;3.42;;;;;;;30.90;26.36;97375.47;4989612;28;20038;-73
2022/05/09 11:55:25;;;;;;;6.88;3.40;;;;;;;32.61;25.20;97372.66;4990183;28;20041;-74
2022/05/09 11:57:58;;;;;;;7.38;3.17;;;;;;;32.94;25.55;97375.56;4990172;28;20120;-73
2022/05/09 12:00:30;;;;;;;7.30;3.58;;;;;;;32.01;25.58;97361.28;4989639;28;20508;-73